Time;durP1;ratioP1;P1;durP2;ratioP2;P2;SDS_P1;SDS_P2;PMS_P1;PMS_P2;Temp;Humidity;BMP_temperature;BMP_pressure;BME280_temperature;BME280_humidity;BME280_pressure;Samples;Min_cycle;Max_cycle;Signal;HPM_P1;HPM_P2
2022/07/24 00:01:04;;;;;;;8.67;6.07;;;;;;;;;;5088969;28;20536;-72
2022/07/24 00:03:31;;;;;;;9.27;7.03;;;;;;;;;;5092201;28;20516;-71
2022/07/24 00:05:58;;;;;;;7.87;6.17;;;;;;;;;;5101907;28;20623;-72
2022/07/24 00:08:26;;;;;;;7.40;6.73;;;;;;;;;;5092976;28;20927;-72
2022/07/24 00:10:53;;;;;;;7.47;6.63;;;;;;;;;;5090545;28;20958;-72
2022/07/24 00:13:20;;;;;;;7.63;6.90;;;;;;;;;;5091372;28;20532;-72
2022/07/24 00:15:48;;;;;;;7.63;6.47;;;;;;;;;;5083069;28;20970;-72
2022/07/24 00:18:16;;;;;;;8.80;6.80;;;;;;;;;;5091151;28;20953;-72
2022/07/24 00:20:43;;;;;;;8.63;7.10;;;;;;;;;;5090464;28;20441;-73
2022/07/24 00:23:10;;;;;;;6.40;5.80;;;;;;;;;;5091510;28;20475;-74
2022/07/24 00:25:37;;;;;;;9.43;7.40;;;;;;;;;;5090806;28;20762;-74
2022/07/24 00:28:04;;;;;;;7.13;6.43;;;;;;;;;;5091122;28;20449;-73
2022/07/24 00:30:32;;;;;;;8.67;5.83;;;;;;;;;;5090837;28;20451;-72
2022/07/24 00:33:00;;;;;;;6.70;6.07;;;;;;;;;;5091504;28;20445;-72
2022/07/24 00:35:27;;;;;;;8.00;6.90;;;;;;;;;;5091054;28;20496;-72
2022/07/24 00:37:54;;;;;;;8.90;6.00;;;;;;;;;;5090648;28;20448;-72
2022/07/24 00:40:22;;;;;;;10.73;5.90;;;;;;;;;;5090903;28;20443;-72
2022/07/24 00:42:49;;;;;;;6.87;5.80;;;;;;;;;;5091034;28;20481;-73
2022/07/24 00:45:16;;;;;;;8.83;7.93;;;;;;;;;;5091195;28;20436;-71
2022/07/24 00:47:43;;;;;;;7.17;6.47;;;;;;;;;;5082335;28;20480;-71
2022/07/24 00:50:12;;;;;;;7.20;6.50;;;;;;;;;;5090836;28;20520;-71
2022/07/24 00:52:39;;;;;;;8.37;6.10;;;;;;;;;;5090397;28;20474;-71
2022/07/24 00:55:07;;;;;;;8.37;6.63;;;;;;;;;;5090932;28;20785;-71
2022/07/24 00:57:34;;;;;;;6.97;6.20;;;;;;;;;;5089599;28;20448;-71
2022/07/24 01:00:02;;;;;;;9.60;6.57;;;;;;;;;;5087053;28;20455;-71
2022/07/24 01:02:29;;;;;;;8.80;7.10;;;;;;;;;;5090754;28;20492;-72
2022/07/24 01:04:56;;;;;;;13.20;6.60;;;;;;;;;;5091273;28;20451;-71
2022/07/24 01:07:24;;;;;;;8.47;6.60;;;;;;;;;;5093182;28;20449;-72
2022/07/24 01:09:52;;;;;;;8.00;6.67;;;;;;;;;;5090028;28;20451;-71
2022/07/24 01:12:19;;;;;;;8.67;6.97;;;;;;;;;;5090847;28;20443;-72
2022/07/24 01:14:47;;;;;;;8.23;6.13;;;;;;;;;;5089908;28;20928;-71
2022/07/24 01:17:14;;;;;;;7.53;6.73;;;;;;;;;;5090826;28;20467;-72
2022/07/24 01:19:41;;;;;;;7.57;6.20;;;;;;;;;;5089847;28;20523;-71
2022/07/24 01:22:09;;;;;;;7.13;6.40;;;;;;;;;;5090582;28;20962;-72
2022/07/24 01:24:37;;;;;;;10.50;6.93;;;;;;;;;;5090240;28;20441;-71
2022/07/24 01:27:04;;;;;;;6.87;6.17;;;;;;;;;;5090705;28;20463;-72
2022/07/24 01:29:31;;;;;;;6.67;6.03;;;;;;;;;;5090509;28;20447;-72
2022/07/24 01:31:59;;;;;;;7.00;6.10;;;;;;;;;;5093036;28;20444;-72
2022/07/24 01:34:26;;;;;;;5.77;5.17;;;;;;;;;;5093123;28;21052;-72
2022/07/24 01:36:53;;;;;;;7.50;6.43;;;;;;;;;;5085283;28;20511;-72
2022/07/24 01:39:22;;;;;;;7.33;5.90;;;;;;;;;;5096086;28;20472;-72
2022/07/24 01:41:49;;;;;;;6.43;5.57;;;;;;;;;;5094173;28;20456;-72
2022/07/24 01:44:16;;;;;;;7.73;6.83;;;;;;;;;;5092797;28;20433;-72
2022/07/24 01:46:43;;;;;;;7.03;6.27;;;;;;;;;;5094014;28;20480;-72
2022/07/24 01:49:11;;;;;;;6.70;5.93;;;;;;;;;;5093773;28;20437;-72
2022/07/24 01:51:38;;;;;;;6.90;5.60;;;;;;;;;;5093864;28;20444;-71
2022/07/24 01:54:05;;;;;;;6.80;6.10;;;;;;;;;;5094471;28;20448;-72
2022/07/24 01:56:34;;;;;;;6.97;6.33;;;;;;;;;;5093548;28;20491;-71
2022/07/24 01:59:01;;;;;;;5.60;5.10;;;;;;;;;;5094224;28;20857;-71
2022/07/24 02:01:29;;;;;;;6.53;5.83;;;;;;;;;;5094861;28;20440;-71
2022/07/24 02:03:56;;;;;;;7.27;5.80;;;;;;;;;;5093858;28;20495;-71
2022/07/24 02:06:23;;;;;;;7.60;6.33;;;;;;;;;;5094485;28;20461;-71
2022/07/24 02:08:51;;;;;;;6.27;5.60;;;;;;;;;;5093611;28;20441;-71
2022/07/24 02:11:19;;;;;;;6.53;5.93;;;;;;;;;;5094136;28;20463;-71
2022/07/24 02:13:47;;;;;;;6.73;6.03;;;;;;;;;;5093186;28;20453;-71
2022/07/24 02:16:14;;;;;;;6.43;5.80;;;;;;;;;;5094136;28;20865;-71
2022/07/24 02:18:42;;;;;;;7.67;6.87;;;;;;;;;;5093179;28;20456;-71
2022/07/24 02:21:09;;;;;;;7.33;5.90;;;;;;;;;;5093556;28;20954;-71
2022/07/24 02:23:36;;;;;;;5.63;5.13;;;;;;;;;;5092708;28;20538;-71
2022/07/24 02:26:03;;;;;;;6.70;5.60;;;;;;;;;;5093861;28;20440;-71
2022/07/24 02:28:30;;;;;;;7.20;5.20;;;;;;;;;;5093663;28;20444;-71
2022/07/24 02:30:59;;;;;;;7.17;6.43;;;;;;;;;;5093325;28;20445;-71
2022/07/24 02:33:26;;;;;;;5.57;4.83;;;;;;;;;;5093161;28;20460;-71
2022/07/24 02:35:53;;;;;;;6.90;6.17;;;;;;;;;;5095520;28;20524;-71
2022/07/24 02:38:20;;;;;;;7.23;6.40;;;;;;;;;;5092621;28;20437;-71
2022/07/24 02:40:48;;;;;;;6.17;5.50;;;;;;;;;;5092825;28;20461;-71
2022/07/24 02:43:15;;;;;;;7.73;6.20;;;;;;;;;;5093160;28;21062;-71
2022/07/24 02:45:42;;;;;;;7.60;6.00;;;;;;;;;;5092471;28;20452;-71
2022/07/24 02:48:10;;;;;;;6.63;5.93;;;;;;;;;;5092075;28;20440;-71
2022/07/24 02:50:38;;;;;;;7.27;6.40;;;;;;;;;;5092095;28;20440;-71
2022/07/24 02:53:06;;;;;;;6.60;5.77;;;;;;;;;;5092185;28;20460;-71
2022/07/24 02:55:33;;;;;;;6.07;5.47;;;;;;;;;;5091763;28;20451;-70
2022/07/24 02:58:00;;;;;;;6.63;5.63;;;;;;;;;;5093189;28;20440;-71
2022/07/24 03:00:27;;;;;;;5.90;5.30;;;;;;;;;;5093244;28;20441;-71
2022/07/24 03:02:54;;;;;;;8.73;5.77;;;;;;;;;;5092152;28;20484;-71
2022/07/24 03:05:23;;;;;;;6.07;5.47;;;;;;;;;;5097568;28;20523;-70
2022/07/24 03:07:50;;;;;;;6.13;5.37;;;;;;;;;;5098807;28;20464;-70
2022/07/24 03:10:17;;;;;;;6.17;5.53;;;;;;;;;;5092659;28;20433;-70
2022/07/24 03:12:44;;;;;;;7.73;6.50;;;;;;;;;;5092429;28;20448;-70
2022/07/24 03:15:13;;;;;;;6.53;5.60;;;;;;;;;;5092859;28;20448;-72
2022/07/24 03:17:40;;;;;;;6.80;5.80;;;;;;;;;;5091894;28;20448;-70
2022/07/24 03:20:07;;;;;;;6.93;5.40;;;;;;;;;;5092320;28;20516;-71
2022/07/24 03:22:36;;;;;;;7.67;5.90;;;;;;;;;;5091987;28;20476;-70
2022/07/24 03:25:03;;;;;;;6.10;4.70;;;;;;;;;;5092927;28;20786;-71
2022/07/24 03:27:31;;;;;;;6.40;5.43;;;;;;;;;;5091982;28;20449;-71
2022/07/24 03:29:58;;;;;;;6.43;5.40;;;;;;;;;;5092549;28;20460;-71
2022/07/24 03:32:25;;;;;;;5.77;5.20;;;;;;;;;;5092460;28;20792;-70
2022/07/24 03:34:52;;;;;;;5.73;5.10;;;;;;;;;;5092285;28;20748;-71
2022/07/24 03:37:19;;;;;;;6.13;5.63;;;;;;;;;;5093870;27;20531;-72
2022/07/24 03:39:48;;;;;;;8.23;6.73;;;;;;;;;;5091769;28;20535;-72
2022/07/24 03:42:15;;;;;;;6.33;4.90;;;;;;;;;;5092692;28;20437;-71
2022/07/24 03:44:42;;;;;;;6.70;5.43;;;;;;;;;;5092212;28;20813;-72
2022/07/24 03:47:09;;;;;;;6.70;5.97;;;;;;;;;;5091854;28;20443;-71
2022/07/24 03:49:37;;;;;;;6.80;6.10;;;;;;;;;;5091388;28;20536;-70
2022/07/24 03:52:04;;;;;;;9.90;5.97;;;;;;;;;;5091813;28;20882;-70
2022/07/24 03:54:31;;;;;;;7.40;6.50;;;;;;;;;;5091972;28;20451;-71
2022/07/24 03:57:00;;;;;;;6.97;6.30;;;;;;;;;;5091633;28;20535;-70
2022/07/24 03:59:27;;;;;;;6.77;5.67;;;;;;;;;;5090957;28;20536;-71
2022/07/24 04:01:54;;;;;;;6.23;5.63;;;;;;;;;;5090552;28;20960;-71
2022/07/24 04:04:21;;;;;;;6.50;5.63;;;;;;;;;;5092337;28;20959;-71
2022/07/24 04:06:49;;;;;;;7.17;6.00;;;;;;;;;;5102379;28;20453;-71
2022/07/24 04:09:16;;;;;;;8.57;6.90;;;;;;;;;;5091561;28;20449;-71
2022/07/24 04:11:44;;;;;;;8.40;5.97;;;;;;;;;;5090744;28;20785;-71
2022/07/24 04:14:12;;;;;;;7.47;5.80;;;;;;;;;;5091846;28;20464;-72
2022/07/24 04:16:40;;;;;;;6.40;5.47;;;;;;;;;;5091051;28;20452;-71
2022/07/24 04:19:07;;;;;;;6.20;5.13;;;;;;;;;;5091294;28;20927;-71
2022/07/24 04:21:34;;;;;;;6.70;5.80;;;;;;;;;;5091100;28;20836;-71
2022/07/24 04:24:01;;;;;;;6.40;5.07;;;;;;;;;;5091179;28;20938;-71
2022/07/24 04:26:28;;;;;;;7.33;6.10;;;;;;;;;;5091562;28;20444;-71
2022/07/24 04:28:55;;;;;;;7.97;6.10;;;;;;;;;;5090463;28;20463;-71
2022/07/24 04:31:24;;;;;;;6.10;5.50;;;;;;;;;;5091702;28;20445;-71
2022/07/24 04:33:51;;;;;;;6.97;6.27;;;;;;;;;;5090574;28;20469;-71
2022/07/24 04:36:18;;;;;;;5.90;5.30;;;;;;;;;;5093140;28;20437;-71
2022/07/24 04:38:45;;;;;;;7.00;5.27;;;;;;;;;;5090120;28;20476;-71
2022/07/24 04:41:15;;;;;;;8.57;5.97;;;;;;;;;;5090956;28;21023;-71
2022/07/24 04:43:43;;;;;;;6.93;5.47;;;;;;;;;;5090485;28;20522;-71
2022/07/24 04:46:10;;;;;;;5.40;4.90;;;;;;;;;;5091189;28;20477;-71
2022/07/24 04:48:38;;;;;;;7.17;5.63;;;;;;;;;;5090029;28;20437;-72
2022/07/24 04:51:06;;;;;;;6.33;5.57;;;;;;;;;;5091429;28;20441;-71
2022/07/24 04:53:33;;;;;;;8.37;5.60;;;;;;;;;;5090563;28;20452;-70
2022/07/24 04:56:00;;;;;;;7.60;5.70;;;;;;;;;;5091205;28;20531;-71
2022/07/24 04:58:27;;;;;;;6.33;5.70;;;;;;;;;;5090440;28;20453;-72
2022/07/24 05:00:54;;;;;;;6.43;5.20;;;;;;;;;;5089810;28;20535;-71
2022/07/24 05:03:21;;;;;;;8.00;5.90;;;;;;;;;;5090897;28;20477;-71
2022/07/24 05:05:50;;;;;;;6.53;5.83;;;;;;;;;;5093642;28;20445;-71
2022/07/24 05:08:17;;;;;;;7.17;6.50;;;;;;;;;;5089979;28;20948;-71
2022/07/24 05:10:44;;;;;;;6.20;5.17;;;;;;;;;;5089169;28;20447;-71
2022/07/24 05:13:12;;;;;;;7.50;6.37;;;;;;;;;;5090576;28;20440;-71
2022/07/24 05:15:39;;;;;;;6.00;5.40;;;;;;;;;;5090421;28;20443;-70
2022/07/24 05:18:06;;;;;;;6.50;5.60;;;;;;;;;;5089955;28;20464;-71
2022/07/24 05:20:33;;;;;;;6.40;5.80;;;;;;;;;;5090421;28;20819;-70
2022/07/24 05:23:01;;;;;;;12.73;6.43;;;;;;;;;;5090709;28;20447;-71
2022/07/24 05:25:29;;;;;;;6.20;5.60;;;;;;;;;;5090345;28;20460;-71
2022/07/24 05:27:56;;;;;;;5.90;4.60;;;;;;;;;;5089291;28;20634;-72
2022/07/24 05:30:23;;;;;;;5.43;4.93;;;;;;;;;;5087660;28;20445;-69
2022/07/24 05:32:50;;;;;;;6.50;5.90;;;;;;;;;;5088407;28;20923;-70
2022/07/24 05:35:17;;;;;;;7.03;4.93;;;;;;;;;;5093222;28;20475;-70
2022/07/24 05:37:44;;;;;;;6.27;5.17;;;;;;;;;;5089963;28;20429;-70
2022/07/24 05:40:13;;;;;;;8.13;6.30;;;;;;;;;;5090712;28;20915;-71
2022/07/24 05:42:41;;;;;;;5.83;5.33;;;;;;;;;;5086581;28;20444;-70
2022/07/24 05:45:08;;;;;;;9.10;6.30;;;;;;;;;;5090167;28;20472;-70
2022/07/24 05:47:38;;;;;;;5.47;4.97;;;;;;;;;;5088560;28;20455;-70
2022/07/24 05:50:07;;;;;;;6.73;5.10;;;;;;;;;;5090423;28;20444;-70
2022/07/24 05:52:35;;;;;;;6.40;5.50;;;;;;;;;;5089667;28;20445;-70
2022/07/24 05:55:02;;;;;;;7.27;6.57;;;;;;;;;;5090840;28;20465;-70
2022/07/24 05:57:30;;;;;;;7.13;6.43;;;;;;;;;;5089565;28;20981;-70
2022/07/24 05:59:58;;;;;;;6.47;5.87;;;;;;;;;;5090415;28;20432;-70
2022/07/24 06:02:25;;;;;;;6.33;5.37;;;;;;;;;;5090122;28;20441;-70
2022/07/24 06:04:52;;;;;;;6.80;5.30;;;;;;;;;;5089864;28;21009;-70
2022/07/24 06:07:19;;;;;;;6.50;5.47;;;;;;;;;;5095635;28;20448;-71
2022/07/24 06:09:46;;;;;;;7.40;5.63;;;;;;;;;;5089688;28;20792;-71
2022/07/24 06:12:13;;;;;;;8.37;5.70;;;;;;;;;;5090253;28;20446;-71
2022/07/24 06:14:42;;;;;;;6.27;5.70;;;;;;;;;;5089205;28;20455;-71
2022/07/24 06:17:09;;;;;;;6.43;4.93;;;;;;;;;;5090014;28;20441;-71
2022/07/24 06:19:36;;;;;;;7.63;5.83;;;;;;;;;;5089295;28;20535;-71
2022/07/24 06:22:03;;;;;;;4.97;4.53;;;;;;;;;;5090374;28;20539;-70
2022/07/24 06:24:30;;;;;;;6.37;5.23;;;;;;;;;;5093950;28;20472;-71
2022/07/24 06:26:58;;;;;;;5.90;5.30;;;;;;;;;;5093363;28;20923;-71
2022/07/24 06:29:25;;;;;;;5.77;5.23;;;;;;;;;;5093860;28;20449;-71
2022/07/24 06:31:53;;;;;;;5.43;4.83;;;;;;;;;;5092766;28;20811;-71
2022/07/24 06:34:23;;;;;;;5.77;5.23;;;;;;;;;;5093314;28;20476;-71
2022/07/24 06:36:51;;;;;;;5.50;5.00;;;;;;;;;;5095814;28;20453;-71
2022/07/24 06:39:18;;;;;;;6.40;4.90;;;;;;;;;;5093240;28;20445;-71
2022/07/24 06:41:45;;;;;;;8.20;5.20;;;;;;;;;;5092379;28;20447;-72
2022/07/24 06:44:12;;;;;;;5.47;4.90;;;;;;;;;;5093482;28;20815;-71
2022/07/24 06:46:39;;;;;;;5.47;4.97;;;;;;;;;;5092898;28;20535;-71
2022/07/24 06:49:08;;;;;;;5.50;4.80;;;;;;;;;;5088373;28;20449;-71
2022/07/24 06:51:35;;;;;;;8.80;5.83;;;;;;;;;;5093003;28;20437;-71
2022/07/24 06:54:02;;;;;;;5.70;4.63;;;;;;;;;;5093089;28;20449;-71
2022/07/24 06:56:29;;;;;;;5.87;5.27;;;;;;;;;;5093230;28;20527;-71
2022/07/24 06:58:58;;;;;;;5.93;5.43;;;;;;;;;;5092010;28;20472;-71
2022/07/24 07:01:25;;;;;;;6.20;4.47;;;;;;;;;;5093175;28;20456;-71
2022/07/24 07:03:53;;;;;;;7.20;4.97;;;;;;;;;;5087615;28;20971;-72
2022/07/24 07:06:21;;;;;;;6.10;5.47;;;;;;;;;;5092315;28;20819;-71
2022/07/24 07:08:49;;;;;;;6.03;4.90;;;;;;;;;;5079929;28;20441;-71
2022/07/24 07:11:16;;;;;;;6.10;5.50;;;;;;;;;;5087002;28;20927;-70
2022/07/24 07:13:43;;;;;;;5.83;5.33;;;;;;;;;;5092016;28;20939;-72
2022/07/24 07:16:10;;;;;;;5.90;4.90;;;;;;;;;;5092124;28;20441;-72
2022/07/24 07:18:37;;;;;;;5.03;4.53;;;;;;;;;;5091492;28;20931;-71
2022/07/24 07:21:05;;;;;;;5.63;5.13;;;;;;;;;;5093011;28;20469;-69
2022/07/24 07:23:34;;;;;;;5.40;4.90;;;;;;;;;;5091982;28;20461;-69
2022/07/24 07:26:01;;;;;;;5.40;4.90;;;;;;;;;;5092651;28;20469;-69
2022/07/24 07:28:28;;;;;;;5.63;5.10;;;;;;;;;;5091882;28;20524;-69
2022/07/24 07:30:55;;;;;;;6.10;5.50;;;;;;;;;;5091415;28;20532;-71
2022/07/24 07:33:23;;;;;;;5.30;4.80;;;;;;;;;;5091675;28;20462;-71
2022/07/24 07:35:50;;;;;;;6.40;5.37;;;;;;;;;;5094346;28;20429;-71
2022/07/24 07:38:17;;;;;;;6.70;6.10;;;;;;;;;;5087582;28;20464;-72
2022/07/24 07:40:46;;;;;;;5.90;5.30;;;;;;;;;;5089966;28;20433;-71
2022/07/24 07:43:13;;;;;;;6.13;5.53;;;;;;;;;;5089780;28;20437;-72
2022/07/24 07:45:40;;;;;;;6.27;5.67;;;;;;;;;;5089270;28;21010;-71
2022/07/24 07:48:07;;;;;;;7.50;6.40;;;;;;;;;;5089477;28;20436;-73
2022/07/24 07:50:34;;;;;;;6.90;6.20;;;;;;;;;;5091566;28;20452;-73
2022/07/24 07:53:02;;;;;;;6.33;5.73;;;;;;;;;;5094977;28;20437;-73
2022/07/24 07:55:29;;;;;;;5.90;5.40;;;;;;;;;;5089181;28;20784;-71
2022/07/24 07:57:57;;;;;;;6.90;6.10;;;;;;;;;;5089052;28;20794;-70
2022/07/24 08:00:24;;;;;;;7.10;6.13;;;;;;;;;;5089240;28;20937;-71
2022/07/24 08:02:52;;;;;;;7.03;6.33;;;;;;;;;;5089334;28;20537;-75
2022/07/24 08:05:19;;;;;;;7.27;6.00;;;;;;;;;;5094145;28;20891;-74
2022/07/24 08:07:46;;;;;;;5.67;5.17;;;;;;;;;;5089923;28;20535;-74
2022/07/24 08:10:13;;;;;;;6.57;5.97;;;;;;;;;;5089762;28;20445;-75
2022/07/24 08:12:40;;;;;;;5.73;5.00;;;;;;;;;;5089092;28;20440;-73
2022/07/24 08:15:10;;;;;;;5.87;5.33;;;;;;;;;;5083222;28;20449;-75
2022/07/24 08:17:37;;;;;;;6.53;5.93;;;;;;;;;;5089299;28;20444;-76
2022/07/24 08:20:05;;;;;;;5.67;5.17;;;;;;;;;;5089111;28;20476;-72
2022/07/24 08:22:32;;;;;;;4.87;4.43;;;;;;;;;;5089573;28;20472;-70
2022/07/24 08:25:00;;;;;;;7.60;5.60;;;;;;;;;;5088202;28;20583;-74
2022/07/24 08:27:27;;;;;;;6.73;6.00;;;;;;;;;;5087880;28;20908;-73
2022/07/24 08:29:54;;;;;;;6.57;6.07;;;;;;;;;;5080758;28;20449;-72
2022/07/24 08:32:23;;;;;;;5.83;5.30;;;;;;;;;;5084101;28;21038;-73
2022/07/24 08:34:50;;;;;;;5.57;5.07;;;;;;;;;;5088247;28;20504;-73
2022/07/24 08:37:20;;;;;;;5.67;5.13;;;;;;;;;;5090521;28;20448;-76
2022/07/24 08:39:47;;;;;;;5.10;4.70;;;;;;;;;;5088427;28;20449;-77
2022/07/24 08:42:14;;;;;;;5.17;4.67;;;;;;;;;;5085640;28;20452;-76
2022/07/24 08:44:41;;;;;;;6.13;5.57;;;;;;;;;;5088954;28;21024;-77
2022/07/24 08:47:09;;;;;;;5.73;5.23;;;;;;;;;;5089008;28;20432;-78
2022/07/24 08:49:38;;;;;;;5.60;5.10;;;;;;;;;;5088967;28;20537;-78
2022/07/24 08:52:08;;;;;;;5.63;5.00;;;;;;;;;;5089360;28;20531;-77
2022/07/24 08:54:35;;;;;;;6.20;5.60;;;;;;;;;;5089134;28;20455;-78
2022/07/24 08:57:02;;;;;;;5.67;5.17;;;;;;;;;;5087021;28;20464;-76
2022/07/24 08:59:30;;;;;;;5.67;5.10;;;;;;;;;;5089211;28;20440;-78
2022/07/24 09:01:57;;;;;;;6.27;5.77;;;;;;;;;;5088608;28;20448;-78
2022/07/24 09:04:34;;;;;;;5.87;5.20;;;;;;;;;;5089431;28;20553;-77
2022/07/24 09:07:04;;;;;;;5.57;5.07;;;;;;;;;;5096478;28;20938;-78
2022/07/24 09:09:31;;;;;;;7.30;6.33;;;;;;;;;;5088322;28;21034;-77
2022/07/24 09:12:05;;;;;;;5.23;4.73;;;;;;;;;;5089595;28;20436;-77
2022/07/24 09:14:33;;;;;;;4.70;4.30;;;;;;;;;;5088621;28;20516;-73
2022/07/24 09:17:04;;;;;;;5.77;5.27;;;;;;;;;;5088788;28;20528;-78
2022/07/24 09:19:31;;;;;;;5.13;4.73;;;;;;;;;;5089629;28;20919;-79
2022/07/24 09:21:58;;;;;;;5.30;4.90;;;;;;;;;;5089776;28;20930;-78
2022/07/24 09:24:26;;;;;;;4.90;4.50;;;;;;;;;;5093725;28;20428;-76
2022/07/24 09:26:55;;;;;;;6.07;5.50;;;;;;;;;;5101403;28;20535;-76
2022/07/24 09:29:23;;;;;;;5.97;5.37;;;;;;;;;;5103316;28;20448;-74
2022/07/24 09:31:51;;;;;;;5.57;4.80;;;;;;;;;;5103783;28;20465;-79
2022/07/24 09:34:19;;;;;;;5.73;5.30;;;;;;;;;;5093873;28;20478;-79
2022/07/24 09:36:56;;;;;;;5.43;4.70;;;;;;;;;;5095064;28;20440;-78
2022/07/24 09:39:24;;;;;;;4.90;4.50;;;;;;;;;;5090815;28;20489;-77
2022/07/24 09:41:54;;;;;;;5.50;5.00;;;;;;;;;;5084537;28;20512;-77
2022/07/24 09:44:22;;;;;;;6.97;6.17;;;;;;;;;;5087607;28;20447;-78
2022/07/24 09:46:55;;;;;;;5.03;4.63;;;;;;;;;;5088275;28;20464;-78
2022/07/24 09:49:23;;;;;;;5.47;4.97;;;;;;;;;;5090884;28;20827;-78
2022/07/24 09:52:07;;;;;;;5.80;5.30;;;;;;;;;;5102079;28;20482;-75
2022/07/24 09:54:35;;;;;;;4.57;4.00;;;;;;;;;;5088784;28;20432;-77
2022/07/24 09:57:15;;;;;;;5.53;4.60;;;;;;;;;;5086122;28;20789;-77
2022/07/24 09:59:44;;;;;;;5.57;4.97;;;;;;;;;;5092335;28;20500;-76
2022/07/24 10:02:14;;;;;;;4.60;4.20;;;;;;;;;;5078928;28;20440;-76
2022/07/24 10:04:43;;;;;;;5.90;5.40;;;;;;;;;;5091706;28;20483;-75
2022/07/24 10:07:11;;;;;;;5.67;5.17;;;;;;;;;;5104091;28;20945;-77
2022/07/24 10:09:41;;;;;;;5.40;4.90;;;;;;;;;;5091264;28;20447;-77
2022/07/24 10:12:12;;;;;;;5.70;5.20;;;;;;;;;;5092527;28;20516;-76
2022/07/24 10:14:41;;;;;;;5.43;5.00;;;;;;;;;;5091438;28;20454;-75
2022/07/24 10:17:09;;;;;;;5.60;5.03;;;;;;;;;;5091994;28;20440;-76
2022/07/24 10:19:40;;;;;;;6.00;5.40;;;;;;;;;;5091582;28;20452;-77
2022/07/24 10:22:10;;;;;;;5.93;5.50;;;;;;;;;;5091694;28;20481;-78
2022/07/24 10:24:54;;;;;;;5.30;4.80;;;;;;;;;;5090673;28;20808;-73
2022/07/24 10:27:24;;;;;;;6.20;5.60;;;;;;;;;;5084755;28;20497;-77
2022/07/24 10:29:53;;;;;;;5.30;4.80;;;;;;;;;;5091032;28;20760;-78
2022/07/24 10:32:21;;;;;;;5.97;5.20;;;;;;;;;;5091529;28;20194;-77
2022/07/24 10:34:49;;;;;;;6.13;5.53;;;;;;;;;;5090829;28;20484;-77
2022/07/24 10:37:20;;;;;;;4.90;4.50;;;;;;;;;;5088652;28;20195;-76
2022/07/24 10:39:52;;;;;;;5.80;5.20;;;;;;;;;;5090866;28;20282;-75
2022/07/24 10:42:19;;;;;;;6.40;5.90;;;;;;;;;;5091824;28;20675;-77
2022/07/24 10:44:46;;;;;;;5.33;4.93;;;;;;;;;;5091460;28;20305;-77
2022/07/24 10:47:16;;;;;;;6.03;5.40;;;;;;;;;;5091401;28;20202;-77
2022/07/24 10:49:45;;;;;;;5.20;4.70;;;;;;;;;;5088628;28;20190;-76
2022/07/24 10:52:13;;;;;;;5.40;4.90;;;;;;;;;;5090122;28;20630;-77
2022/07/24 10:54:41;;;;;;;6.00;5.50;;;;;;;;;;5090686;28;20335;-77
2022/07/24 10:57:08;;;;;;;5.47;4.97;;;;;;;;;;5088786;28;20204;-77
2022/07/24 10:59:37;;;;;;;5.53;5.13;;;;;;;;;;5090082;28;20606;-75
2022/07/24 11:02:22;;;;;;;7.00;5.77;;;;;;;;;;5089016;28;20195;-78
2022/07/24 11:05:11;;;;;;;5.83;4.83;;;;;;;;;;5088935;28;20198;-77
2022/07/24 11:07:38;;;;;;;7.83;6.27;;;;;;;;;;5088978;28;20202;-76
2022/07/24 11:10:07;;;;;;;6.22;5.47;;;;;;;;;;5087449;28;20277;-77
2022/07/24 11:12:35;;;;;;;5.97;5.47;;;;;;;;;;5089534;28;20527;-77
2022/07/24 11:17:45;;;;;;;5.30;4.88;;;;;;;;;;5089174;28;20237;-76
2022/07/24 11:20:14;;;;;;;5.30;4.90;;;;;;;;;;5091233;28;20222;-76
2022/07/24 11:22:43;;;;;;;5.35;4.95;;;;;;;;;;5090595;28;20281;-75
2022/07/24 11:25:15;;;;;;;6.05;5.55;;;;;;;;;;5089871;28;20688;-77
2022/07/24 11:27:43;;;;;;;5.53;5.13;;;;;;;;;;5089780;28;20186;-77
2022/07/24 11:30:11;;;;;;;6.30;5.70;;;;;;;;;;5090660;28;20199;-79
2022/07/24 11:32:40;;;;;;;5.40;5.00;;;;;;;;;;5090022;28;20588;-75
2022/07/24 11:35:08;;;;;;;5.57;5.17;;;;;;;;;;5093470;28;20237;-77
2022/07/24 11:37:37;;;;;;;5.50;5.00;;;;;;;;;;5089963;28;20550;-75
2022/07/24 11:40:06;;;;;;;5.60;5.20;;;;;;;;;;5089901;28;20862;-77
2022/07/24 11:42:33;;;;;;;6.43;5.93;;;;;;;;;;5089190;28;20455;-76
2022/07/24 11:45:01;;;;;;;6.43;5.90;;;;;;;;;;5090339;28;20437;-77
2022/07/24 11:47:28;;;;;;;6.20;5.60;;;;;;;;;;5090003;28;20978;-75
2022/07/24 11:49:56;;;;;;;7.07;5.47;;;;;;;;;;5090053;28;20471;-74
2022/07/24 11:52:24;;;;;;;5.30;4.90;;;;;;;;;;5090675;28;20850;-74
2022/07/24 11:54:54;;;;;;;6.13;5.53;;;;;;;;;;5096956;28;20440;-71
2022/07/24 11:57:22;;;;;;;5.20;4.70;;;;;;;;;;5092147;28;20536;-72
2022/07/24 11:59:49;;;;;;;5.37;4.90;;;;;;;;;;5092298;28;20187;-76
2022/07/24 12:02:17;;;;;;;6.40;5.80;;;;;;;;;;5109658;28;21081;-74
2022/07/24 12:04:45;;;;;;;5.80;5.30;;;;;;;;;;5096383;28;20194;-75
2022/07/24 12:07:13;;;;;;;5.77;5.27;;;;;;;;;;5097021;28;20352;-75
2022/07/24 12:09:47;;;;;;;6.35;5.80;;;;;;;;;;5091108;28;20621;-76
2022/07/24 12:12:27;;;;;;;5.75;5.25;;;;;;;;;;5088130;28;20646;-73
2022/07/24 12:14:56;;;;;;;5.82;5.13;;;;;;;;;;5088287;28;20281;-77
2022/07/24 12:17:23;;;;;;;5.63;5.10;;;;;;;;;;5089475;28;20286;-75
2022/07/24 12:19:54;;;;;;;5.93;5.43;;;;;;;;;;5088484;28;20202;-76
2022/07/24 12:22:22;;;;;;;5.60;5.10;;;;;;;;;;5089103;28;20208;-75
2022/07/24 12:24:49;;;;;;;6.75;5.38;;;;;;;;;;5086672;28;20289;-72
2022/07/24 12:27:31;;;;;;;5.50;5.00;;;;;;;;;;5091370;28;20210;-71
2022/07/24 12:30:00;;;;;;;6.07;5.00;;;;;;;;;;5077134;28;20244;-75
2022/07/24 12:32:27;;;;;;;5.63;5.10;;;;;;;;;;5083999;28;20202;-74
2022/07/24 12:34:54;;;;;;;6.07;5.65;;;;;;;;;;5087955;28;20260;-72
2022/07/24 12:37:22;;;;;;;6.35;5.85;;;;;;;;;;5086612;28;20196;-74
2022/07/24 12:39:50;;;;;;;5.65;5.10;;;;;;;;;;5087062;28;20512;-75
2022/07/24 12:42:18;;;;;;;6.15;5.75;;;;;;;;;;5088599;28;20201;-76
2022/07/24 12:44:46;;;;;;;6.00;5.50;;;;;;;;;;5087872;28;20226;-73
2022/07/24 12:47:14;;;;;;;5.10;4.70;;;;;;;;;;5087223;28;20218;-74
2022/07/24 12:49:42;;;;;;;6.22;5.05;;;;;;;;;;5088079;28;20289;-74
2022/07/24 12:52:20;;;;;;;5.70;5.30;;;;;;;;;;5088197;28;20194;-75
2022/07/24 12:54:48;;;;;;;4.63;4.32;;;;;;;;;;5088263;28;20285;-75
2022/07/24 12:57:15;;;;;;;5.22;4.82;;;;;;;;;;5085759;28;20198;-74
2022/07/24 12:59:45;;;;;;;5.47;4.88;;;;;;;;;;5086956;28;20293;-75
2022/07/24 13:02:13;;;;;;;4.97;4.57;;;;;;;;;;5091139;28;20198;-75
2022/07/24 13:04:46;;;;;;;5.45;5.05;;;;;;;;;;5089199;28;20209;-75
2022/07/24 13:07:13;;;;;;;6.45;5.90;;;;;;;;;;5100912;28;20287;-75
2022/07/24 13:09:40;;;;;;;5.40;5.00;;;;;;;;;;5092223;28;20263;-73
2022/07/24 13:12:09;;;;;;;5.22;4.82;;;;;;;;;;5107689;28;20233;-75
2022/07/24 13:14:36;;;;;;;5.88;5.28;;;;;;;;;;5108574;28;20208;-73
2022/07/24 13:17:04;;;;;;;5.22;4.82;;;;;;;;;;5110916;28;20228;-72
2022/07/24 13:19:32;;;;;;;5.55;5.05;;;;;;;;;;5106739;28;20198;-74
2022/07/24 13:22:00;;;;;;;5.40;4.95;;;;;;;;;;5094965;28;20292;-77
2022/07/24 13:24:29;;;;;;;5.97;5.22;;;;;;;;;;5092874;28;20202;-75
2022/07/24 13:26:57;;;;;;;5.45;4.85;;;;;;;;;;5091176;28;20218;-76
2022/07/24 13:29:25;;;;;;;5.85;5.40;;;;;;;;;;5091487;28;20752;-77
2022/07/24 13:31:52;;;;;;;6.45;5.68;;;;;;;;;;5091021;28;20391;-76
2022/07/24 13:34:19;;;;;;;6.32;5.72;;;;;;;;;;5095577;28;20324;-76
2022/07/24 13:36:47;;;;;;;6.03;5.55;;;;;;;;;;5097814;28;20563;-77
2022/07/24 13:39:16;;;;;;;7.07;6.32;;;;;;;;;;5095176;28;20202;-74
2022/07/24 13:41:43;;;;;;;5.72;5.22;;;;;;;;;;5095490;28;20213;-76
2022/07/24 13:44:10;;;;;;;5.18;4.78;;;;;;;;;;5095479;28;20251;-75
2022/07/24 13:46:37;;;;;;;6.30;5.70;;;;;;;;;;5094423;28;20244;-75
2022/07/24 13:49:06;;;;;;;5.35;4.95;;;;;;;;;;5095149;28;20207;-76
2022/07/24 13:51:35;;;;;;;7.00;6.40;;;;;;;;;;5094874;28;20202;-72
2022/07/24 13:54:04;;;;;;;15.65;14.15;;;;;;;;;;5081820;28;20210;-74
2022/07/24 13:56:33;;;;;;;8.43;7.55;;;;;;;;;;5094821;28;20288;-74
2022/07/24 13:59:01;;;;;;;5.72;5.32;;;;;;;;;;5095077;28;20276;-76
2022/07/24 14:01:28;;;;;;;5.60;5.20;;;;;;;;;;5094786;28;20205;-76
2022/07/24 14:03:55;;;;;;;5.93;5.32;;;;;;;;;;5093996;28;20224;-76
2022/07/24 14:06:23;;;;;;;5.85;5.40;;;;;;;;;;5105884;28;20268;-76
2022/07/24 14:08:50;;;;;;;7.00;6.40;;;;;;;;;;5094289;28;20209;-75
2022/07/24 14:11:17;;;;;;;5.60;5.10;;;;;;;;;;5094634;28;20198;-75
2022/07/24 14:13:46;;;;;;;6.85;6.25;;;;;;;;;;5094344;28;20194;-74
2022/07/24 14:16:13;;;;;;;5.38;4.93;;;;;;;;;;5094313;28;20336;-76
2022/07/24 14:18:40;;;;;;;6.10;5.60;;;;;;;;;;5094390;28;20623;-74
2022/07/24 14:21:07;;;;;;;5.95;5.45;;;;;;;;;;5094681;28;20273;-75
2022/07/24 14:23:34;;;;;;;5.63;5.22;;;;;;;;;;5094053;28;20202;-75
2022/07/24 14:26:01;;;;;;;5.85;5.35;;;;;;;;;;5094898;28;20198;-76
2022/07/24 14:28:28;;;;;;;6.05;5.47;;;;;;;;;;5094205;28;20198;-75
2022/07/24 14:30:57;;;;;;;5.18;4.68;;;;;;;;;;5093542;28;20205;-75
2022/07/24 14:33:24;;;;;;;5.32;4.82;;;;;;;;;;5094021;28;20313;-75
2022/07/24 14:35:51;;;;;;;5.90;5.43;;;;;;;;;;5096822;28;20190;-74
2022/07/24 14:38:18;;;;;;;7.05;6.20;;;;;;;;;;5093806;28;20198;-76
2022/07/24 14:40:46;;;;;;;5.57;5.07;;;;;;;;;;5093378;28;20208;-75
2022/07/24 14:43:13;;;;;;;5.93;5.53;;;;;;;;;;5094145;28;20205;-76
2022/07/24 14:45:40;;;;;;;5.53;5.13;;;;;;;;;;5093702;28;20587;-76
2022/07/24 14:48:08;;;;;;;9.02;8.23;;;;;;;;;;5093743;28;20651;-74
2022/07/24 14:50:35;;;;;;;6.60;6.13;;;;;;;;;;5093719;28;20198;-77